createdAt,value
2023-01-11T00:00:58.270Z,42.93
2023-01-11T00:02:00.853Z,42.92
2023-01-11T00:03:03.828Z,42.77
2023-01-11T00:04:06.322Z,42.79
2023-01-11T00:05:09.850Z,42.73
2023-01-11T00:06:12.491Z,42.83
2023-01-11T00:07:15.418Z,42.83
2023-01-11T00:08:18.711Z,42.79
2023-01-11T00:09:23.132Z,42.80
2023-01-11T00:10:28.793Z,42.76
2023-01-11T00:11:32.112Z,42.75
2023-01-11T00:12:34.611Z,42.71
2023-01-11T00:13:39.132Z,42.66
2023-01-11T00:14:42.271Z,42.69
2023-01-11T00:15:45.605Z,42.68
2023-01-11T00:16:48.231Z,42.68
2023-01-11T00:17:50.794Z,42.63
2023-01-11T00:18:53.611Z,42.67
2023-01-11T00:19:56.463Z,42.62
2023-01-11T00:21:00.462Z,42.55
2023-01-11T00:22:02.927Z,42.60
2023-01-11T00:23:05.373Z,42.52
2023-01-11T00:24:07.935Z,42.50
2023-01-11T00:25:10.458Z,42.51
2023-01-11T00:26:14.433Z,42.46
2023-01-11T00:27:16.941Z,42.40
2023-01-11T00:28:20.465Z,42.45
2023-01-11T00:29:22.904Z,42.40
2023-01-11T00:30:25.460Z,42.37
2023-01-11T00:31:28.875Z,42.28
2023-01-11T00:32:32.207Z,42.21
2023-01-11T00:33:34.966Z,42.19
2023-01-11T00:34:38.196Z,42.18
2023-01-11T00:35:40.978Z,42.20
2023-01-11T00:36:44.132Z,42.27
2023-01-11T00:37:46.887Z,42.24
2023-01-11T00:38:54.338Z,42.26
2023-01-11T00:39:57.955Z,42.27
2023-01-11T00:41:02.734Z,42.21
2023-01-11T00:42:25.001Z,42.23
2023-01-11T00:43:45.994Z,42.21
2023-01-11T00:45:07.218Z,42.19
2023-01-11T00:46:28.348Z,42.17
2023-01-11T00:47:49.937Z,42.11
2023-01-11T00:48:52.291Z,42.12
2023-01-11T00:49:55.227Z,42.11
2023-01-11T00:50:58.824Z,42.10
2023-01-11T00:52:01.794Z,42.20
2023-01-11T00:53:05.950Z,42.28
2023-01-11T00:54:08.398Z,42.26
2023-01-11T00:55:10.579Z,42.26
2023-01-11T00:56:14.177Z,42.26
2023-01-11T00:57:17.488Z,42.26
2023-01-11T00:58:20.127Z,42.32
2023-01-11T00:59:23.253Z,42.28
2023-01-11T01:00:27.636Z,42.28
2023-01-11T01:01:30.617Z,42.27
2023-01-11T01:02:33.544Z,42.24
2023-01-11T01:03:37.158Z,42.21
2023-01-11T01:04:40.682Z,42.22
2023-01-11T01:05:43.140Z,42.18
2023-01-11T01:06:46.134Z,42.14
2023-01-11T01:07:49.495Z,42.17
2023-01-11T01:08:52.292Z,42.21
2023-01-11T01:09:55.303Z,42.23
2023-01-11T01:10:59.945Z,42.23
2023-01-11T01:12:03.813Z,42.18
2023-01-11T01:13:28.601Z,42.16
2023-01-11T01:14:32.812Z,42.12
2023-01-11T01:15:35.673Z,42.06
2023-01-11T01:16:38.600Z,42.05
2023-01-11T01:17:42.464Z,42.06
2023-01-11T01:18:45.408Z,42.02
2023-01-11T01:19:48.035Z,42.02
2023-01-11T01:20:51.139Z,42.02
2023-01-11T01:21:57.923Z,41.94
2023-01-11T01:23:00.275Z,41.90
2023-01-11T01:24:03.488Z,41.92
2023-01-11T01:25:07.201Z,42.02
2023-01-11T01:26:09.995Z,42.08
2023-01-11T01:27:14.807Z,42.12
2023-01-11T01:28:19.463Z,42.11
2023-01-11T01:29:21.977Z,42.02
2023-01-11T01:30:25.654Z,41.98
2023-01-11T01:31:29.324Z,42.00
2023-01-11T01:32:31.868Z,41.99
2023-01-11T01:33:35.927Z,41.94
2023-01-11T01:34:38.507Z,41.95
2023-01-11T01:35:42.133Z,41.93
2023-01-11T01:36:45.423Z,41.55
2023-01-11T01:37:48.303Z,41.55
2023-01-11T01:38:50.960Z,41.87
2023-01-11T01:39:53.862Z,41.83
2023-01-11T01:40:56.997Z,41.83
2023-01-11T01:41:59.618Z,41.84
2023-01-11T01:43:03.080Z,41.80
2023-01-11T01:44:26.096Z,41.80
2023-01-11T01:45:29.550Z,41.81
2023-01-11T01:46:33.880Z,41.77
2023-01-11T01:47:40.716Z,41.78
2023-01-11T01:48:44.523Z,41.77
2023-01-11T01:49:47.321Z,41.84
2023-01-11T01:50:55.163Z,41.82
2023-01-11T01:51:57.924Z,41.79
2023-01-11T01:53:09.648Z,41.79
2023-01-11T01:54:14.224Z,41.79
2023-01-11T01:55:20.586Z,41.79
2023-01-11T01:57:38.409Z,41.77
2023-01-11T01:58:51.100Z,41.72
2023-01-11T01:59:53.565Z,41.73
2023-01-11T02:00:56.302Z,41.74
2023-01-11T02:01:59.102Z,41.73
2023-01-11T02:03:02.319Z,41.75
2023-01-11T02:04:10.461Z,41.73
2023-01-11T02:05:13.076Z,41.70
2023-01-11T02:06:15.954Z,41.67
2023-01-11T02:07:21.453Z,41.65
2023-01-11T02:08:28.344Z,41.69
2023-01-11T02:09:54.029Z,41.67
2023-01-11T02:10:58.508Z,41.64
2023-01-11T02:12:01.702Z,41.64
2023-01-11T02:13:09.296Z,41.67
2023-01-11T02:14:15.593Z,41.67
2023-01-11T02:15:19.502Z,41.69
2023-01-11T02:16:21.869Z,41.70
2023-01-11T02:17:24.718Z,41.65
2023-01-11T02:18:28.121Z,41.68
2023-01-11T02:19:50.171Z,41.67
2023-01-11T02:21:31.376Z,41.66
2023-01-11T02:24:07.404Z,41.75
2023-01-11T02:25:49.152Z,41.74
2023-01-11T02:27:07.308Z,41.68
2023-01-11T02:28:30.186Z,41.64
2023-01-11T02:31:18.619Z,41.69
2023-01-11T02:32:44.106Z,41.69
2023-01-11T02:34:07.814Z,41.71
2023-01-11T02:35:24.299Z,41.71
2023-01-11T02:36:50.048Z,41.72
2023-01-11T02:39:45.318Z,41.69
2023-01-11T02:40:51.540Z,41.68
2023-01-11T02:42:28.910Z,41.71
2023-01-11T02:44:03.882Z,41.73
2023-01-11T02:45:16.336Z,41.71
2023-01-11T02:46:28.645Z,41.73
2023-01-11T02:47:59.366Z,41.75
2023-01-11T02:49:20.770Z,41.76
2023-01-11T02:50:35.573Z,41.78
2023-01-11T02:51:51.199Z,41.78
2023-01-11T02:53:00.206Z,41.82
2023-01-11T02:54:06.058Z,41.81
2023-01-11T02:55:08.913Z,41.77
2023-01-11T02:57:28.192Z,41.76
2023-01-11T02:58:34.593Z,41.65
2023-01-11T02:59:37.635Z,41.60
2023-01-11T03:00:40.646Z,41.54
2023-01-11T03:01:47.137Z,41.49
2023-01-11T03:04:29.208Z,41.50
2023-01-11T03:05:31.648Z,41.41
2023-01-11T03:06:34.798Z,41.41
2023-01-11T03:07:56.135Z,41.41
2023-01-11T03:09:11.345Z,41.44
2023-01-11T03:10:29.694Z,41.42
2023-01-11T03:12:11.729Z,41.38
2023-01-11T03:13:39.306Z,41.39
2023-01-11T03:14:53.976Z,41.40
2023-01-11T03:16:17.927Z,41.40
2023-01-11T03:17:47.064Z,41.42
2023-01-11T03:18:53.753Z,41.47
2023-01-11T03:21:19.385Z,41.48
2023-01-11T03:22:41.719Z,41.48
2023-01-11T03:23:49.590Z,41.59
2023-01-11T03:25:11.077Z,41.58
2023-01-11T03:26:17.336Z,41.57
2023-01-11T03:27:31.835Z,41.60
2023-01-11T03:28:56.214Z,41.62
2023-01-11T03:30:05.738Z,41.59
2023-01-11T03:31:24.388Z,41.58
2023-01-11T03:32:47.557Z,41.54
2023-01-11T03:33:55.007Z,41.57
2023-01-11T03:35:02.266Z,41.56
2023-01-11T03:36:17.510Z,41.58
2023-01-11T03:38:54.183Z,41.58
2023-01-11T03:40:05.472Z,41.58
2023-01-11T03:42:22.869Z,41.64
2023-01-11T03:43:25.964Z,41.64
2023-01-11T03:44:34.564Z,41.64
2023-01-11T03:47:17.620Z,41.66
2023-01-11T03:48:33.529Z,41.71
2023-01-11T03:49:44.281Z,41.79
2023-01-11T03:50:47.788Z,41.83
2023-01-11T03:51:50.294Z,41.83
2023-01-11T03:52:52.980Z,41.92
2023-01-11T03:53:58.581Z,41.94
2023-01-11T03:55:02.282Z,41.91
2023-01-11T03:56:09.417Z,41.92
2023-01-11T03:57:24.276Z,41.94
2023-01-11T03:58:27.726Z,41.95
2023-01-11T03:59:30.278Z,42.01
2023-01-11T04:00:32.993Z,41.98
2023-01-11T04:01:35.522Z,42.07
2023-01-11T04:02:40.992Z,42.05
2023-01-11T04:03:43.452Z,42.10
2023-01-11T04:04:45.862Z,42.17
2023-01-11T04:05:52.471Z,42.17
2023-01-11T04:06:55.575Z,42.18
2023-01-11T04:07:58.810Z,42.15
2023-01-11T04:09:01.177Z,42.19
2023-01-11T04:10:04.489Z,42.21
2023-01-11T04:11:10.145Z,42.20
2023-01-11T04:12:12.612Z,42.24
2023-01-11T04:13:15.020Z,42.26
2023-01-11T04:14:17.869Z,42.22
2023-01-11T04:15:20.246Z,42.24
2023-01-11T04:16:22.699Z,42.24
2023-01-11T04:17:25.085Z,42.30
2023-01-11T04:18:27.498Z,42.26
2023-01-11T04:19:29.818Z,42.31
2023-01-11T04:20:34.201Z,42.30
2023-01-11T04:21:36.664Z,42.46
2023-01-11T04:22:39.818Z,42.53
2023-01-11T04:23:42.411Z,42.57
2023-01-11T04:24:45.582Z,42.58
2023-01-11T04:25:48.271Z,42.55
2023-01-11T04:26:51.654Z,42.58
2023-01-11T04:27:53.962Z,42.63
2023-01-11T04:28:56.280Z,42.64
2023-01-11T04:29:58.682Z,42.63
2023-01-11T04:31:01.266Z,42.60
2023-01-11T04:32:05.177Z,42.70
2023-01-11T04:33:08.192Z,42.80
2023-01-11T04:34:11.784Z,42.86
2023-01-11T04:35:14.788Z,42.87
2023-01-11T04:36:18.499Z,42.92
2023-01-11T04:37:22.711Z,42.89
2023-01-11T04:38:26.695Z,42.89
2023-01-11T04:39:29.170Z,42.82
2023-01-11T04:40:31.606Z,42.82
2023-01-11T04:41:52.352Z,42.86
2023-01-11T04:42:55.063Z,42.82
2023-01-11T04:43:57.924Z,42.75
2023-01-11T04:45:00.487Z,42.74
2023-01-11T04:46:04.784Z,42.76
2023-01-11T04:47:08.516Z,42.71
2023-01-11T04:48:11.002Z,42.71
2023-01-11T04:49:13.682Z,42.63
2023-01-11T04:50:17.558Z,42.64
2023-01-11T04:51:19.934Z,42.62
2023-01-11T04:52:23.314Z,42.57
2023-01-11T04:53:26.100Z,42.53
2023-01-11T04:54:28.907Z,42.53
2023-01-11T04:55:31.861Z,42.51
2023-01-11T04:56:35.832Z,42.50
2023-01-11T04:57:38.544Z,42.42
2023-01-11T04:58:41.584Z,42.44
2023-01-11T04:59:47.509Z,42.40
2023-01-11T05:00:50.230Z,42.42
2023-01-11T05:01:53.041Z,42.21
2023-01-11T05:02:58.835Z,42.21
2023-01-11T05:04:01.906Z,42.38
2023-01-11T05:05:07.174Z,42.34
2023-01-11T05:06:09.744Z,42.39
2023-01-11T05:07:12.605Z,42.35
2023-01-11T05:08:16.558Z,42.04
2023-01-11T05:09:20.137Z,42.04
2023-01-11T05:10:22.654Z,42.30
2023-01-11T05:11:25.171Z,42.31
2023-01-11T05:12:28.295Z,42.42
2023-01-11T05:13:42.991Z,42.39
2023-01-11T05:14:46.381Z,42.42
2023-01-11T05:15:48.737Z,42.41
2023-01-11T05:16:51.257Z,42.48
2023-01-11T05:17:53.674Z,42.42
2023-01-11T05:18:59.321Z,42.47
2023-01-11T05:20:02.229Z,42.47
2023-01-11T05:21:05.892Z,42.46
2023-01-11T05:22:09.188Z,42.42
2023-01-11T05:23:11.996Z,42.41
2023-01-11T05:24:15.088Z,42.39
2023-01-11T05:25:17.786Z,42.40
2023-01-11T05:26:24.477Z,42.41
2023-01-11T05:27:26.990Z,42.42
2023-01-11T05:28:29.446Z,42.45
2023-01-11T05:29:32.747Z,42.46
2023-01-11T05:30:36.418Z,42.56
2023-01-11T05:31:39.956Z,42.56
2023-01-11T05:32:42.459Z,42.59
2023-01-11T05:33:45.975Z,42.76
2023-01-11T05:34:48.716Z,42.84
2023-01-11T05:35:55.074Z,42.87
2023-01-11T05:36:57.410Z,42.85
2023-01-11T05:38:01.613Z,42.91
2023-01-11T05:39:04.213Z,42.95
2023-01-11T05:40:08.400Z,43.07
2023-01-11T05:41:13.123Z,43.10
2023-01-11T05:42:16.199Z,43.12
2023-01-11T05:43:18.585Z,43.16
2023-01-11T05:44:39.506Z,43.07
2023-01-11T05:45:43.191Z,42.90
2023-01-11T05:46:46.292Z,42.60
2023-01-11T05:47:51.345Z,42.46
2023-01-11T05:48:54.931Z,42.28
2023-01-11T05:49:58.381Z,42.00
2023-01-11T05:51:01.615Z,41.82
2023-01-11T05:52:06.575Z,41.64
2023-01-11T05:53:10.257Z,41.53
2023-01-11T05:54:14.058Z,41.53
2023-01-11T05:55:18.101Z,41.48
2023-01-11T05:56:20.767Z,41.57
2023-01-11T05:57:23.175Z,41.53
2023-01-11T05:58:28.091Z,41.60
2023-01-11T05:59:32.204Z,41.61
2023-01-11T06:00:34.841Z,41.67
2023-01-11T06:01:37.558Z,41.71
2023-01-11T06:02:40.852Z,41.83
2023-01-11T06:03:44.036Z,41.82
2023-01-11T06:04:47.785Z,41.89
2023-01-11T06:05:51.271Z,41.93
2023-01-11T06:06:54.228Z,42.00
2023-01-11T06:07:56.716Z,42.07
2023-01-11T06:09:00.892Z,42.12
2023-01-11T06:10:04.077Z,42.13
2023-01-11T06:11:07.204Z,42.13
2023-01-11T06:12:10.512Z,42.23
2023-01-11T06:13:28.311Z,42.28
2023-01-11T06:14:32.132Z,42.30
2023-01-11T06:15:36.518Z,42.34
2023-01-11T06:16:39.118Z,42.39
2023-01-11T06:17:41.702Z,42.42
2023-01-11T06:18:46.619Z,42.46
2023-01-11T06:19:49.247Z,42.56
2023-01-11T06:20:52.789Z,42.53
2023-01-11T06:21:56.227Z,42.56
2023-01-11T06:22:58.759Z,42.58
2023-01-11T06:24:01.099Z,42.59
2023-01-11T06:25:04.978Z,42.63
2023-01-11T06:26:12.694Z,42.70
2023-01-11T06:27:17.165Z,42.80
2023-01-11T06:28:19.699Z,42.82
2023-01-11T06:29:22.496Z,42.86
2023-01-11T06:30:25.287Z,42.86
2023-01-11T06:31:28.675Z,43.01
2023-01-11T06:32:31.255Z,43.12
2023-01-11T06:33:34.030Z,43.04
2023-01-11T10:22:34.227Z,43.25
2023-01-11T10:23:50.476Z,43.52
2023-01-11T10:24:59.606Z,43.87
2023-01-11T10:26:04.069Z,44.58
2023-01-11T10:27:21.236Z,44.77
2023-01-11T10:28:32.662Z,44.50
2023-01-11T10:29:52.613Z,44.29
2023-01-11T10:30:58.261Z,44.16
2023-01-11T10:32:01.121Z,43.94
2023-01-11T10:33:09.233Z,43.72
2023-01-11T10:34:25.993Z,43.58
2023-01-11T10:35:37.790Z,43.41
2023-01-11T10:37:11.520Z,43.22
2023-01-11T10:38:45.207Z,43.12
2023-01-11T10:40:01.747Z,42.78
2023-01-11T10:41:10.312Z,42.26
2023-01-11T10:42:23.146Z,41.97
2023-01-11T10:43:26.766Z,41.80
2023-01-11T10:44:46.695Z,41.60
2023-01-11T10:45:53.306Z,41.47
2023-01-11T10:46:57.165Z,41.30
2023-01-11T10:49:27.952Z,41.09
2023-01-11T10:50:43.311Z,40.96
2023-01-11T10:51:46.696Z,40.93
2023-01-11T10:53:16.214Z,40.82
2023-01-11T10:54:32.724Z,40.76
2023-01-11T10:57:13.435Z,40.63
2023-01-11T10:58:25.510Z,40.65
2023-01-11T10:59:47.316Z,40.72
2023-01-11T11:02:32.378Z,40.61
2023-01-11T11:05:22.758Z,40.45
2023-01-11T11:06:45.249Z,40.35
2023-01-11T11:08:15.180Z,40.34
2023-01-11T11:09:37.920Z,40.42
2023-01-11T11:10:44.581Z,40.57
2023-01-11T11:11:52.715Z,40.58
2023-01-11T11:14:29.657Z,40.72
2023-01-11T11:15:42.338Z,40.68
2023-01-11T11:17:19.571Z,40.63
2023-01-11T11:18:22.795Z,40.60
2023-01-11T11:19:26.625Z,40.55
2023-01-11T11:20:30.997Z,40.52
2023-01-11T11:21:38.489Z,40.47
2023-01-11T11:22:42.020Z,40.41
2023-01-11T11:23:44.525Z,40.50
2023-01-11T11:25:04.576Z,40.50
2023-01-11T11:26:09.160Z,40.50
2023-01-11T11:27:19.502Z,40.52
2023-01-11T11:28:28.018Z,40.61
2023-01-11T11:29:31.729Z,40.47
2023-01-11T11:30:37.350Z,40.12
2023-01-11T11:31:44.225Z,39.33
2023-01-11T11:32:53.313Z,38.73
2023-01-11T11:33:55.772Z,38.37
2023-01-11T11:34:59.187Z,38.15
2023-01-11T11:36:05.344Z,38.14
2023-01-11T11:37:08.892Z,37.57
2023-01-11T11:39:30.263Z,37.59
2023-01-11T11:40:37.611Z,37.46
2023-01-11T11:41:51.697Z,37.18
2023-01-11T11:43:20.555Z,37.11
2023-01-11T11:44:25.858Z,36.72
2023-01-11T11:45:28.600Z,36.52
2023-01-11T11:46:32.135Z,36.61
2023-01-11T11:47:37.068Z,36.59
2023-01-11T11:48:43.210Z,36.39
2023-01-11T11:49:48.203Z,36.41
2023-01-11T11:50:51.227Z,36.31
2023-01-11T11:51:54.691Z,36.50
2023-01-11T11:54:27.059Z,36.68
2023-01-11T11:55:31.295Z,36.60
2023-01-11T11:56:35.625Z,36.53
2023-01-11T11:57:41.445Z,36.99
2023-01-11T11:58:45.116Z,36.29
2023-01-11T11:59:49.361Z,35.85
2023-01-11T12:00:52.228Z,35.80
2023-01-11T12:02:01.544Z,35.50
2023-01-11T12:03:16.069Z,35.44
2023-01-11T12:04:19.935Z,35.21
2023-01-11T12:05:22.611Z,35.50
2023-01-11T12:06:27.548Z,35.35
2023-01-11T12:08:48.663Z,35.43
2023-01-11T12:09:59.846Z,35.07
2023-01-11T12:11:05.569Z,34.74
2023-01-11T12:12:11.687Z,34.95
2023-01-11T12:13:31.997Z,35.17
2023-01-11T12:14:34.962Z,35.00
2023-01-11T12:15:37.327Z,35.19
2023-01-11T12:16:40.858Z,34.83
2023-01-11T12:17:45.079Z,34.68
2023-01-11T12:18:47.802Z,35.06
2023-01-11T12:19:52.130Z,34.96
2023-01-11T12:20:55.815Z,35.14
2023-01-11T12:23:32.309Z,34.79
2023-01-11T12:24:34.784Z,34.69
2023-01-11T12:25:57.731Z,34.81
2023-01-11T12:27:10.839Z,34.32
2023-01-11T12:28:44.873Z,34.56
2023-01-11T12:29:57.052Z,34.50
2023-01-11T12:31:07.468Z,34.29
2023-01-11T12:32:19.779Z,34.01
2023-01-11T12:33:31.781Z,34.12
2023-01-11T12:34:48.165Z,33.95
2023-01-11T12:37:40.228Z,34.51
2023-01-11T12:39:04.587Z,34.77
2023-01-11T12:40:35.620Z,34.78
2023-01-11T12:42:01.441Z,35.24
2023-01-11T12:43:28.498Z,33.68
2023-01-11T12:44:41.188Z,33.88
2023-01-11T12:45:47.621Z,34.12
2023-01-11T12:47:17.812Z,33.84
2023-01-11T12:48:40.631Z,33.67
2023-01-11T12:51:23.659Z,33.76
2023-01-11T12:52:45.463Z,33.58
2023-01-11T12:53:51.594Z,33.64
2023-01-11T12:55:07.368Z,33.65
2023-01-11T12:56:35.459Z,33.83
2023-01-11T12:57:43.928Z,34.40
2023-01-11T13:00:24.685Z,32.61
2023-01-11T13:01:40.479Z,32.61
2023-01-11T13:04:54.545Z,33.73
2023-01-11T13:06:14.039Z,33.46
2023-01-11T13:07:29.368Z,33.61
2023-01-11T13:08:48.453Z,33.93
2023-01-11T13:10:04.406Z,33.99
2023-01-11T13:11:40.043Z,34.16
2023-01-11T13:13:06.410Z,33.93
2023-01-11T13:14:29.680Z,34.39
2023-01-11T13:15:40.845Z,34.28
2023-01-11T13:18:04.932Z,34.08
2023-01-11T13:19:13.373Z,34.51
2023-01-11T13:21:00.446Z,34.48
2023-01-11T13:21:53.597Z,34.29
2023-01-11T13:24:27.245Z,34.67
2023-01-11T13:25:36.942Z,34.78
2023-01-11T13:26:41.460Z,34.71
2023-01-11T13:27:45.712Z,35.15
2023-01-11T13:28:51.809Z,34.63
2023-01-11T13:29:55.310Z,34.63
2023-01-11T13:30:58.795Z,34.59
2023-01-11T13:32:05.540Z,34.80
2023-01-11T13:33:14.660Z,35.27
2023-01-11T13:34:35.111Z,34.87
2023-01-11T13:35:41.990Z,34.97
2023-01-11T13:36:47.818Z,34.65
2023-01-11T13:38:08.565Z,34.51
2023-01-11T13:40:43.102Z,34.58
2023-01-11T13:41:53.478Z,33.94
2023-01-11T13:43:08.412Z,33.98
2023-01-11T13:44:27.622Z,34.10
2023-01-11T13:45:36.317Z,34.04
2023-01-11T13:46:45.827Z,34.21
2023-01-11T13:47:56.362Z,34.11
2023-01-11T13:49:09.419Z,34.03
2023-01-11T13:50:33.593Z,34.19
2023-01-11T13:51:50.609Z,33.72
2023-01-11T13:53:03.698Z,34.25
2023-01-11T13:54:16.834Z,33.95
2023-01-11T13:55:37.457Z,33.67
2023-01-11T13:56:41.955Z,33.61
2023-01-11T13:57:54.625Z,33.76
2023-01-11T19:42:00.091Z,44.74
2023-01-11T19:43:02.700Z,44.75
2023-01-11T19:44:06.949Z,44.90
2023-01-11T19:45:09.871Z,44.54
2023-01-11T19:46:19.481Z,44.41
2023-01-11T19:47:18.829Z,44.48
2023-01-11T19:48:22.942Z,43.19
2023-01-11T19:49:25.889Z,45.35
2023-01-11T19:50:28.766Z,44.40
2023-01-11T19:51:33.419Z,43.92
2023-01-11T19:52:36.743Z,43.92
2023-01-11T19:53:41.398Z,44.08
2023-01-11T19:54:44.806Z,43.77
2023-01-11T19:55:47.868Z,43.77
2023-01-11T19:56:51.266Z,43.40
2023-01-11T19:57:54.784Z,42.94
2023-01-11T19:58:57.390Z,42.57
2023-01-11T20:00:00.016Z,42.35
2023-01-11T20:01:10.857Z,42.89
2023-01-11T20:02:14.581Z,41.43
2023-01-11T20:03:17.323Z,41.52
2023-01-11T20:04:20.765Z,41.24
2023-01-11T20:05:23.660Z,40.38
2023-01-11T20:06:27.104Z,41.01
2023-01-11T20:07:29.823Z,41.01
2023-01-11T20:08:35.335Z,41.47
2023-01-11T20:09:38.307Z,41.47
2023-01-11T20:10:41.425Z,40.50
2023-01-11T20:11:44.820Z,40.37
2023-01-11T20:12:48.336Z,39.81
2023-01-11T20:13:53.022Z,40.00
2023-01-11T20:14:58.360Z,39.45
2023-01-11T20:16:10.450Z,39.37
2023-01-11T20:17:13.776Z,39.85
2023-01-11T20:18:19.185Z,39.79
2023-01-11T20:19:21.782Z,39.82
2023-01-11T20:20:24.945Z,39.30
2023-01-11T20:21:28.530Z,39.88
2023-01-11T20:22:32.080Z,39.50
2023-01-11T20:23:34.915Z,39.22
2023-01-11T20:24:37.488Z,39.63
2023-01-11T20:25:41.423Z,39.48
2023-01-11T20:26:46.122Z,39.82
2023-01-11T20:27:48.809Z,39.02
2023-01-11T20:28:53.833Z,38.58
2023-01-11T20:29:56.807Z,39.43
2023-01-11T20:31:02.010Z,38.96
2023-01-11T20:32:27.697Z,39.46
2023-01-11T20:33:09.546Z,39.38
2023-01-11T20:34:13.525Z,39.46
2023-01-11T20:35:17.960Z,39.04
2023-01-11T20:36:21.536Z,38.28
2023-01-11T20:37:25.378Z,38.92
2023-01-11T20:38:27.896Z,38.85
2023-01-11T20:39:30.292Z,37.83
2023-01-11T20:40:34.822Z,37.24
2023-01-11T20:41:46.434Z,37.20
2023-01-11T20:42:49.568Z,36.86
2023-01-11T20:43:52.065Z,37.31
2023-01-11T20:44:55.451Z,37.07
2023-01-11T20:45:58.428Z,36.46
2023-01-11T20:47:00.920Z,35.78
2023-01-11T20:48:03.482Z,36.01
2023-01-11T20:49:06.528Z,36.50
2023-01-11T20:50:10.761Z,36.30
2023-01-11T20:51:13.809Z,35.59
2023-01-11T20:52:16.200Z,35.59
2023-01-11T20:53:19.570Z,35.63
2023-01-11T20:54:21.933Z,35.36
2023-01-11T20:55:24.757Z,35.39
2023-01-11T20:56:30.212Z,35.21
2023-01-11T20:57:33.653Z,35.22
2023-01-11T20:58:36.406Z,35.25
2023-01-11T20:59:39.539Z,34.56
2023-01-11T21:00:42.758Z,34.59
2023-01-11T21:01:46.366Z,34.69
2023-01-11T21:02:50.679Z,34.05
2023-01-11T21:03:54.593Z,34.47
2023-01-11T21:04:58.168Z,34.08
2023-01-11T21:07:16.789Z,34.43
2023-01-11T21:08:20.060Z,33.72
2023-01-11T21:09:22.816Z,33.72
2023-01-11T21:10:29.562Z,34.04
2023-01-11T21:11:33.458Z,33.90
2023-01-11T21:13:40.085Z,33.74
2023-01-11T21:14:42.476Z,33.46
2023-01-11T21:15:44.929Z,34.26
2023-01-11T21:16:49.114Z,34.03
2023-01-11T21:17:53.019Z,34.08
2023-01-11T21:19:00.668Z,34.26
2023-01-11T21:20:04.460Z,33.69
2023-01-11T21:21:07.020Z,34.12
2023-01-11T21:22:11.948Z,34.23
2023-01-11T21:23:16.074Z,33.70
2023-01-11T21:24:20.193Z,33.98
2023-01-11T21:25:22.925Z,33.32
2023-01-11T21:26:26.114Z,33.72
2023-01-11T21:27:29.637Z,33.32
2023-01-11T21:28:32.343Z,34.05
2023-01-11T21:29:36.011Z,33.94
2023-01-11T21:30:38.883Z,33.04
2023-01-11T21:31:42.261Z,33.04
2023-01-11T21:32:46.146Z,33.25
2023-01-11T21:33:49.326Z,33.45
2023-01-11T21:34:52.831Z,33.44
2023-01-11T21:35:57.316Z,33.90
2023-01-11T21:37:00.175Z,33.54
2023-01-11T21:38:02.672Z,32.78
2023-01-11T21:39:05.291Z,33.50
2023-01-11T21:40:11.276Z,32.83
2023-01-11T21:41:21.835Z,32.20
2023-01-11T21:42:25.259Z,32.61
2023-01-11T21:43:28.125Z,31.82
2023-01-11T21:44:32.808Z,32.06
2023-01-11T21:45:37.124Z,32.07
2023-01-11T21:46:40.117Z,31.77
2023-01-11T21:47:45.810Z,31.30
2023-01-11T21:48:49.333Z,31.31
2023-01-11T21:49:51.802Z,30.58
2023-01-11T21:50:56.102Z,31.08
2023-01-11T21:51:59.295Z,30.93
2023-01-11T21:53:01.913Z,31.35
2023-01-11T21:54:05.998Z,30.98
2023-01-11T21:55:10.955Z,30.55
2023-01-11T21:56:14.589Z,30.86
2023-01-11T21:57:18.064Z,30.31
2023-01-11T21:58:20.818Z,30.71
2023-01-11T21:59:24.069Z,30.85
2023-01-11T22:00:29.676Z,30.64
2023-01-11T22:01:32.212Z,30.58
2023-01-11T22:02:34.650Z,30.24
2023-01-11T22:03:37.265Z,30.46
2023-01-11T22:04:40.146Z,30.07
2023-01-11T22:05:44.472Z,31.03
2023-01-11T22:06:50.491Z,30.57
2023-01-11T22:07:55.863Z,30.64
2023-01-11T23:54:40.850Z,44.94
2023-01-11T23:55:43.275Z,44.90
2023-01-11T23:56:46.567Z,44.49
2023-01-11T23:57:51.208Z,43.41
2023-01-11T23:58:54.637Z,43.13
2023-01-11T23:59:57.388Z,42.60
